Flight Track Log - Related Links

Times and Time Zones

All times are in EDT time to prevent confusion due to time zone crossing. See the N960DL flight status page for this flight to view local times or setup timezone preferences in your user account.

Time Position Orientation Groundspeed Altitude Reporting Facility
EDT Latitude Longitude Course Direction KTS MPH feet Rate Location/Type
Mon 02:52:59 PM 29.1844 -81.0469 354° North 163 188 900  Level Jacksonville Center
Mon 02:54:06 PM 29.2144 -80.9750 64° Northeast 247 284 2,600 2,115 Climbing Jacksonville Center
Mon 02:55:00 PM 29.4264 -81.3098 319° Northwest  Level FlightAware Approximate
Mon 02:55:01 PM 29.2767 -80.9453 23° Northeast 294 338 5,200  Level Jacksonville Center
Mon 02:55:35 PM 29.3167 -80.9586 344° North 275 316 6,200 2,800 Climbing Jacksonville Center
Mon 02:56:00 PM 29.5137 -81.3970 319° Northwest  Level FlightAware Approximate
Mon 02:56:01 PM 29.3297 -81.0014 289° West 287 330 8,000  Level Jacksonville Center
Mon 02:56:35 PM 29.3428 -81.0367 293° West 284 327 9,000 1,935 Climbing Jacksonville Center
Mon 02:57:00 PM 29.6220 -81.4314 352° North  Level FlightAware Approximate
Mon 02:57:34 PM 29.3794 -81.1219 296° West 294 338 11,000  Level Jacksonville Center
Mon 02:58:00 PM 29.7369 -81.4463 354° North  Level FlightAware Approximate
Mon 02:58:34 PM 29.4289 -81.2258 299° West 326 375 12,300  Level Jacksonville Center
Mon 02:59:34 PM 29.4886 -81.3322 303° West 371 427 14,900 2,350 Climbing Jacksonville Center
Mon 03:00:34 PM 29.5775 -81.4144 321° Northwest 399 459 17,000 1,800 Climbing Jacksonville Center
Mon 03:01:34 PM 29.6803 -81.4797 331° Northwest 416 479 18,500 992 Climbing Jacksonville Center
Mon 03:02:35 PM 29.7997 -81.5117 347° North 416 479 19,000 250 Climbing Jacksonville Center
Mon 03:03:34 PM 29.9211 -81.5458 346° North 430 495 19,000 100 Level Jacksonville Center
Mon 03:04:35 PM 30.0447 -81.5778 347° North 441 507 19,200 992 Climbing Jacksonville Center
Mon 03:05:35 PM 30.1683 -81.6094 348° North 441 507 21,000 1,815 Climbing Jacksonville Center
Mon 03:06:34 PM 30.3083 -81.6486 346° North 459 528 22,800 1,815 Climbing Jacksonville Center
Mon 03:07:34 PM 30.4361 -81.6831 347° North 466 536 24,600 1,736 Climbing Jacksonville Center
Mon 03:08:35 PM 30.5617 -81.7200 346° North 472 543 26,300 1,587 Climbing Jacksonville Center
Mon 03:09:35 PM 30.6853 -81.7572 345° North 472 543 27,800 1,500 Climbing Jacksonville Center
Mon 03:10:35 PM 30.8108 -81.7944 346° North 472 543 29,300 1,450 Climbing Jacksonville Center
Mon 03:11:35 PM 30.9283 -81.8511 338° Northwest 461 531 30,700 1,300 Climbing Jacksonville Center
Mon 03:12:35 PM 31.0375 -81.9203 332° Northwest 448 516 31,900 1,059 Climbing Jacksonville Center
Mon 03:13:34 PM 31.1486 -81.9847 334° Northwest 443 510 32,800 555 Climbing Jacksonville Center
Mon 03:14:34 PM 31.2575 -82.0467 334° Northwest 437 503 33,000 100 Climbing Jacksonville Center
Mon 03:15:34 PM 31.3686 -82.1139 333° Northwest 437 503 33,000  Level Jacksonville Center
Mon 03:16:35 PM 31.4797 -82.1811 333° Northwest 437 503 33,000  Level Jacksonville Center
Mon 03:17:35 PM 31.5867 -82.2486 332° Northwest 442 509 33,000  Level Jacksonville Center
Mon 03:19:32 PM 31.8064 -82.3722 334° Northwest 457 526 33,000  Level Atlanta Center
Mon 03:20:32 PM 31.9136 -82.4364 333° Northwest 449 517 33,000  Level Atlanta Center
Mon 03:21:32 PM 32.0167 -82.4981 333° Northwest 435 501 33,000  Level Atlanta Center
Mon 03:22:32 PM 32.1217 -82.5600 333° Northwest 424 488 33,000 -400 Level Atlanta Center
Mon 03:23:32 PM 32.2269 -82.6244 333° Northwest 419 482 32,200 -900 Descending Atlanta Center
Mon 03:24:32 PM 32.3297 -82.6844 334° Northwest 413 475 31,200 -1,000 Descending Atlanta Center
Mon 03:25:32 PM 32.4286 -82.7469 332° Northwest 413 475 30,200 -1,000 Descending Atlanta Center
Mon 03:26:32 PM 32.5275 -82.8119 331° Northwest 413 475 29,200 -1,050 Descending Atlanta Center
Mon 03:27:32 PM 32.6342 -82.8450 345° North 406 467 28,100 -1,000 Descending Atlanta Center
Mon 03:28:32 PM 32.6917 -82.7406 57° Northeast 295 339 27,200 -950 Descending Atlanta Center
Mon 03:29:32 PM 32.6383 -82.6378 122° Southeast 228 262 26,200 -1,000 Descending Atlanta Center
Mon 03:30:32 PM 32.5417 -82.6022 163° South 247 284 25,200 -600 Descending Atlanta Center
Mon 03:31:32 PM 32.4475 -82.5719 165° South 302 348 25,000 -100 Descending Atlanta Center
Mon 03:32:32 PM 32.3492 -82.5489 169° South 335 386 25,000  Level Atlanta Center
Mon 03:33:32 PM 32.2747 -82.6142 217° Southwest 306 352 25,000  Level Atlanta Center
Mon 03:34:32 PM 32.2928 -82.7242 281° West 241 277 25,000  Level Atlanta Center
Mon 03:35:32 PM 32.3872 -82.7722 337° Northwest 235 270 25,000  Level Atlanta Center
Mon 03:36:32 PM 32.4878 -82.8075 344° North 305 351 25,000  Level Atlanta Center
Mon 03:37:32 PM 32.5903 -82.8406 345° North 360 414 25,000  Level Atlanta Center
Mon 03:38:32 PM 32.6753 -82.7728 34° Northeast 320 368 25,000  Level Atlanta Center
Mon 03:39:32 PM 32.6386 -82.6625 112° Southeast 224 258 25,000 -50 Level Atlanta Center
Mon 03:40:32 PM 32.5400 -82.6244 162° South 244 281 24,900 -500 Descending Atlanta Center
Mon 03:41:32 PM 32.4436 -82.5942 165° South 295 339 24,000 -450 Descending Atlanta Center
Mon 03:42:32 PM 32.3453 -82.5736 170° South 330 380 24,000  Level Atlanta Center
Mon 03:43:32 PM 32.2600 -82.6069 198° South 328 377 24,000  Level Atlanta Center
Mon 03:44:32 PM 32.2969 -82.7342 289° West 252 290 24,000  Level Atlanta Center
Mon 03:45:32 PM 32.3997 -82.7792 340° North 246 283 24,000  Level Atlanta Center
Mon 03:46:32 PM 32.4881 -82.8419 329° Northwest 310 357 24,000 -50 Level Atlanta Center
Mon 03:47:32 PM 32.5536 -82.9325 311° West 335 386 23,900 -700 Descending Atlanta Center
Mon 03:48:32 PM 32.6169 -83.0106 314° West 369 425 22,600 -1,300 Descending Atlanta Center
Mon 03:49:32 PM 32.6969 -83.1206 311° West 369 425 21,300 -1,450 Descending Atlanta Center
Mon 03:50:32 PM 32.7708 -83.2161 313° West 376 433 19,700 -1,600 Descending Atlanta Center
Mon 03:51:32 PM 32.8403 -83.3044 313° West 376 433 18,100 -1,550 Descending Atlanta Center
Mon 03:52:32 PM 32.9056 -83.3931 311° West 371 427 16,600 -1,550 Descending Atlanta Center
Mon 03:53:32 PM 32.9728 -83.4817 312° West 366 421 15,000 -1,550 Descending Atlanta Center
Mon 03:54:32 PM 33.0397 -83.5731 311° West 361 415 13,500 -1,450 Descending Atlanta Center
Mon 03:55:32 PM 33.1069 -83.6644 311° West 361 415 12,100 -750 Descending Atlanta Center
Mon 03:56:32 PM 33.1656 -83.7386 313° West 360 414 12,000 -93 Descending Atlanta Center
Mon 03:57:41 PM 33.2500 -83.8500 312° West 300 345 11,900 -400 Descending Atlanta TRACON
Mon 03:58:32 PM 33.2764 -83.8997 302° West 317 365 11,200 -1,189 Descending Atlanta Center
Mon 03:59:32 PM 33.3183 -83.9742 304° West 287 330 9,700 -1,550 Descending Atlanta Center
Mon 04:00:32 PM 33.3539 -84.0514 299° West 266 306 8,100 -850 Descending Atlanta Center
Mon 04:01:32 PM 33.3831 -84.1208 297° West 240 276 8,000 -750 Descending Atlanta Center
Mon 04:02:32 PM 33.4414 -84.1136 North 182 209 6,600 -1,000 Descending Atlanta Center
Mon 04:03:32 PM 33.4708 -84.0389 65° Northeast 169 194 6,000 -700 Descending Atlanta Center
Mon 04:04:32 PM 33.5061 -83.9742 57° Northeast 202 232 5,200 -1,000 Descending Atlanta Center
Mon 04:05:32 PM 33.5542 -83.9664 North 183 211 4,000 -369 Descending Atlanta Center
Mon 04:07:47 PM 33.6167 -84.0667 307° West 166 191 4,000  Level Atlanta TRACON
Mon 04:08:47 PM 33.6167 -84.1167 270° West 169 194 4,000  Level Atlanta TRACON
Mon 04:09:47 PM 33.6167 -84.1833 270° West 168 193 4,000 -95 Level Atlanta TRACON
Mon 04:10:53 PM 33.6167 -84.2333 270° West 162 186 3,800 -182 Descending Atlanta TRACON

Login

Don't have an account? Register now (free) for customized features, flight alerts, and more!